sensor_id;sensor_type;location;lat;lon;timestamp;temperature;humidity
73322;DHT22;61549;37.044;22.128;2023-04-24T00:00:16;19.00;57.30
73322;DHT22;61549;37.044;22.128;2023-04-24T00:02:43;18.90;57.20
73322;DHT22;61549;37.044;22.128;2023-04-24T00:05:14;18.90;57.50
73322;DHT22;61549;37.044;22.128;2023-04-24T00:07:41;18.90;57.50
73322;DHT22;61549;37.044;22.128;2023-04-24T00:10:08;18.80;57.50
73322;DHT22;61549;37.044;22.128;2023-04-24T00:12:34;18.80;57.50
73322;DHT22;61549;37.044;22.128;2023-04-24T00:15:00;18.80;57.20
73322;DHT22;61549;37.044;22.128;2023-04-24T00:17:28;18.80;57.40
73322;DHT22;61549;37.044;22.128;2023-04-24T00:19:54;18.70;57.40
73322;DHT22;61549;37.044;22.128;2023-04-24T00:22:29;18.70;57.50
73322;DHT22;61549;37.044;22.128;2023-04-24T00:24:56;18.70;57.60
73322;DHT22;61549;37.044;22.128;2023-04-24T00:27:23;18.70;57.30
73322;DHT22;61549;37.044;22.128;2023-04-24T00:29:49;18.60;57.10
73322;DHT22;61549;37.044;22.128;2023-04-24T00:32:15;18.60;57.30
73322;DHT22;61549;37.044;22.128;2023-04-24T00:34:41;18.50;57.30
73322;DHT22;61549;37.044;22.128;2023-04-24T00:37:07;18.50;56.90
73322;DHT22;61549;37.044;22.128;2023-04-24T00:39:33;18.50;56.80
73322;DHT22;61549;37.044;22.128;2023-04-24T00:41:59;18.60;57.10
73322;DHT22;61549;37.044;22.128;2023-04-24T00:44:25;18.60;57.00
73322;DHT22;61549;37.044;22.128;2023-04-24T00:46:53;18.60;56.80
73322;DHT22;61549;37.044;22.128;2023-04-24T00:49:21;18.60;56.50
73322;DHT22;61549;37.044;22.128;2023-04-24T00:51:47;18.60;56.40
73322;DHT22;61549;37.044;22.128;2023-04-24T00:54:15;18.70;56.30
73322;DHT22;61549;37.044;22.128;2023-04-24T00:56:42;18.70;56.30
73322;DHT22;61549;37.044;22.128;2023-04-24T00:59:08;18.70;56.40
73322;DHT22;61549;37.044;22.128;2023-04-24T01:01:35;18.80;56.50
73322;DHT22;61549;37.044;22.128;2023-04-24T01:04:01;18.80;56.50
73322;DHT22;61549;37.044;22.128;2023-04-24T01:06:29;18.80;56.70
73322;DHT22;61549;37.044;22.128;2023-04-24T01:08:57;18.80;56.80
73322;DHT22;61549;37.044;22.128;2023-04-24T01:11:25;18.80;56.90
73322;DHT22;61549;37.044;22.128;2023-04-24T01:13:51;18.80;57.00
73322;DHT22;61549;37.044;22.128;2023-04-24T01:16:17;18.70;57.00
73322;DHT22;61549;37.044;22.128;2023-04-24T01:18:46;18.70;57.20
73322;DHT22;61549;37.044;22.128;2023-04-24T01:21:14;18.60;57.40
73322;DHT22;61549;37.044;22.128;2023-04-24T01:23:43;18.60;57.50
73322;DHT22;61549;37.044;22.128;2023-04-24T01:26:08;18.50;57.60
73322;DHT22;61549;37.044;22.128;2023-04-24T01:28:34;18.40;57.80
73322;DHT22;61549;37.044;22.128;2023-04-24T01:31:01;18.40;58.00
73322;DHT22;61549;37.044;22.128;2023-04-24T01:33:27;18.40;58.20
73322;DHT22;61549;37.044;22.128;2023-04-24T01:35:52;18.40;58.10
73322;DHT22;61549;37.044;22.128;2023-04-24T01:38:19;18.40;58.70
73322;DHT22;61549;37.044;22.128;2023-04-24T01:40:45;18.40;58.00
73322;DHT22;61549;37.044;22.128;2023-04-24T01:43:12;18.40;57.80
73322;DHT22;61549;37.044;22.128;2023-04-24T01:45:38;18.40;57.90
73322;DHT22;61549;37.044;22.128;2023-04-24T01:48:04;18.40;57.70
73322;DHT22;61549;37.044;22.128;2023-04-24T01:50:30;18.40;57.60
73322;DHT22;61549;37.044;22.128;2023-04-24T01:52:58;18.40;57.70
73322;DHT22;61549;37.044;22.128;2023-04-24T01:55:24;18.50;57.80
73322;DHT22;61549;37.044;22.128;2023-04-24T01:57:51;18.50;57.90
73322;DHT22;61549;37.044;22.128;2023-04-24T02:00:17;18.40;57.80
73322;DHT22;61549;37.044;22.128;2023-04-24T02:02:43;18.40;57.90
73322;DHT22;61549;37.044;22.128;2023-04-24T02:05:09;18.40;57.70
73322;DHT22;61549;37.044;22.128;2023-04-24T02:07:36;18.30;57.80
73322;DHT22;61549;37.044;22.128;2023-04-24T02:10:03;18.30;58.00
73322;DHT22;61549;37.044;22.128;2023-04-24T02:12:29;18.20;57.90
73322;DHT22;61549;37.044;22.128;2023-04-24T02:14:55;18.10;58.00
73322;DHT22;61549;37.044;22.128;2023-04-24T02:17:21;18.00;58.10
73322;DHT22;61549;37.044;22.128;2023-04-24T02:19:48;18.00;58.40
73322;DHT22;61549;37.044;22.128;2023-04-24T02:22:14;18.00;58.30
73322;DHT22;61549;37.044;22.128;2023-04-24T02:24:40;17.90;58.40
73322;DHT22;61549;37.044;22.128;2023-04-24T02:27:06;17.80;58.10
73322;DHT22;61549;37.044;22.128;2023-04-24T02:29:32;17.80;58.00
73322;DHT22;61549;37.044;22.128;2023-04-24T02:32:05;17.80;58.20
73322;DHT22;61549;37.044;22.128;2023-04-24T02:34:30;17.90;58.50
73322;DHT22;61549;37.044;22.128;2023-04-24T02:36:56;17.90;58.50
73322;DHT22;61549;37.044;22.128;2023-04-24T02:39:22;17.90;58.60
73322;DHT22;61549;37.044;22.128;2023-04-24T02:41:48;17.80;58.60
73322;DHT22;61549;37.044;22.128;2023-04-24T02:44:14;17.80;58.80
73322;DHT22;61549;37.044;22.128;2023-04-24T02:46:40;17.80;58.70
73322;DHT22;61549;37.044;22.128;2023-04-24T02:49:07;17.80;58.70
73322;DHT22;61549;37.044;22.128;2023-04-24T02:51:33;17.80;58.70
73322;DHT22;61549;37.044;22.128;2023-04-24T02:53:59;17.90;58.70
73322;DHT22;61549;37.044;22.128;2023-04-24T02:56:24;17.80;58.60
73322;DHT22;61549;37.044;22.128;2023-04-24T02:58:50;17.80;58.60
73322;DHT22;61549;37.044;22.128;2023-04-24T03:01:16;17.80;58.50
73322;DHT22;61549;37.044;22.128;2023-04-24T03:03:43;17.80;58.40
73322;DHT22;61549;37.044;22.128;2023-04-24T03:06:09;17.70;58.30
73322;DHT22;61549;37.044;22.128;2023-04-24T03:08:35;17.70;58.10
73322;DHT22;61549;37.044;22.128;2023-04-24T03:11:01;17.70;58.10
73322;DHT22;61549;37.044;22.128;2023-04-24T03:13:26;17.70;58.30
73322;DHT22;61549;37.044;22.128;2023-04-24T03:15:52;17.70;58.00
73322;DHT22;61549;37.044;22.128;2023-04-24T03:18:19;17.60;58.10
73322;DHT22;61549;37.044;22.128;2023-04-24T03:20:48;17.50;58.10
73322;DHT22;61549;37.044;22.128;2023-04-24T03:23:14;17.50;58.30
73322;DHT22;61549;37.044;22.128;2023-04-24T03:25:40;17.40;58.30
73322;DHT22;61549;37.044;22.128;2023-04-24T03:28:08;17.40;58.30
73322;DHT22;61549;37.044;22.128;2023-04-24T03:30:34;17.40;58.30
73322;DHT22;61549;37.044;22.128;2023-04-24T03:33:00;17.40;58.50
73322;DHT22;61549;37.044;22.128;2023-04-24T03:35:26;17.40;58.50
73322;DHT22;61549;37.044;22.128;2023-04-24T03:38:00;17.40;58.40
73322;DHT22;61549;37.044;22.128;2023-04-24T03:40:26;17.40;58.50
73322;DHT22;61549;37.044;22.128;2023-04-24T03:42:53;17.40;58.60
73322;DHT22;61549;37.044;22.128;2023-04-24T03:45:19;17.40;58.70
73322;DHT22;61549;37.044;22.128;2023-04-24T03:47:45;17.30;58.80
73322;DHT22;61549;37.044;22.128;2023-04-24T03:50:11;17.30;58.70
73322;DHT22;61549;37.044;22.128;2023-04-24T03:52:37;17.30;58.60
73322;DHT22;61549;37.044;22.128;2023-04-24T03:55:03;17.30;58.60
73322;DHT22;61549;37.044;22.128;2023-04-24T03:57:28;17.30;58.50
73322;DHT22;61549;37.044;22.128;2023-04-24T03:59:54;17.30;58.70
73322;DHT22;61549;37.044;22.128;2023-04-24T04:02:20;17.20;58.90
73322;DHT22;61549;37.044;22.128;2023-04-24T04:04:46;17.20;59.20
73322;DHT22;61549;37.044;22.128;2023-04-24T04:07:12;17.20;59.40
73322;DHT22;61549;37.044;22.128;2023-04-24T04:09:38;17.20;59.80
73322;DHT22;61549;37.044;22.128;2023-04-24T04:12:04;17.20;60.10
73322;DHT22;61549;37.044;22.128;2023-04-24T04:14:30;17.20;60.20
73322;DHT22;61549;37.044;22.128;2023-04-24T04:16:56;17.20;60.30
73322;DHT22;61549;37.044;22.128;2023-04-24T04:19:21;17.20;60.30
73322;DHT22;61549;37.044;22.128;2023-04-24T04:21:47;17.20;60.30
73322;DHT22;61549;37.044;22.128;2023-04-24T04:24:19;17.20;60.10
73322;DHT22;61549;37.044;22.128;2023-04-24T04:26:46;17.20;60.00
73322;DHT22;61549;37.044;22.128;2023-04-24T04:29:13;17.30;60.00
73322;DHT22;61549;37.044;22.128;2023-04-24T04:31:39;17.30;60.00
73322;DHT22;61549;37.044;22.128;2023-04-24T04:34:05;17.40;60.40
73322;DHT22;61549;37.044;22.128;2023-04-24T04:36:31;17.40;59.80
73322;DHT22;61549;37.044;22.128;2023-04-24T04:38:57;17.40;60.30
73322;DHT22;61549;37.044;22.128;2023-04-24T04:41:24;17.40;59.90
73322;DHT22;61549;37.044;22.128;2023-04-24T04:43:50;17.50;60.00
73322;DHT22;61549;37.044;22.128;2023-04-24T04:49:09;17.50;60.00
73322;DHT22;61549;37.044;22.128;2023-04-24T04:51:36;17.50;60.40
73322;DHT22;61549;37.044;22.128;2023-04-24T04:54:02;17.50;60.50
73322;DHT22;61549;37.044;22.128;2023-04-24T04:57:00;17.60;60.70
73322;DHT22;61549;37.044;22.128;2023-04-24T04:59:35;17.60;60.80
73322;DHT22;61549;37.044;22.128;2023-04-24T05:02:01;17.60;61.20
73322;DHT22;61549;37.044;22.128;2023-04-24T05:04:26;17.70;61.40
73322;DHT22;61549;37.044;22.128;2023-04-24T05:06:54;17.70;61.50
73322;DHT22;61549;37.044;22.128;2023-04-24T05:09:20;17.80;61.60
73322;DHT22;61549;37.044;22.128;2023-04-24T05:11:46;17.90;61.60
73322;DHT22;61549;37.044;22.128;2023-04-24T05:14:12;17.90;61.90
73322;DHT22;61549;37.044;22.128;2023-04-24T05:16:38;18.10;62.20
73322;DHT22;61549;37.044;22.128;2023-04-24T05:19:05;18.20;62.30
73322;DHT22;61549;37.044;22.128;2023-04-24T05:21:38;18.20;62.30
73322;DHT22;61549;37.044;22.128;2023-04-24T05:24:05;18.30;62.30
73322;DHT22;61549;37.044;22.128;2023-04-24T05:26:31;18.50;62.30
73322;DHT22;61549;37.044;22.128;2023-04-24T05:29:09;18.50;62.40
73322;DHT22;61549;37.044;22.128;2023-04-24T05:31:35;18.50;62.10
73322;DHT22;61549;37.044;22.128;2023-04-24T05:34:00;18.60;62.00
73322;DHT22;61549;37.044;22.128;2023-04-24T05:36:26;18.70;61.90
73322;DHT22;61549;37.044;22.128;2023-04-24T05:38:52;18.60;62.10
73322;DHT22;61549;37.044;22.128;2023-04-24T05:41:18;18.70;62.00
73322;DHT22;61549;37.044;22.128;2023-04-24T05:43:44;18.80;61.70
73322;DHT22;61549;37.044;22.128;2023-04-24T05:46:11;18.90;61.10
73322;DHT22;61549;37.044;22.128;2023-04-24T05:48:37;18.90;60.70
73322;DHT22;61549;37.044;22.128;2023-04-24T05:51:02;18.90;60.60
73322;DHT22;61549;37.044;22.128;2023-04-24T05:53:28;18.90;60.10
73322;DHT22;61549;37.044;22.128;2023-04-24T05:55:54;19.00;59.70
73322;DHT22;61549;37.044;22.128;2023-04-24T05:58:36;19.00;59.30
73322;DHT22;61549;37.044;22.128;2023-04-24T06:01:03;19.00;59.30
73322;DHT22;61549;37.044;22.128;2023-04-24T06:03:29;19.00;59.20
73322;DHT22;61549;37.044;22.128;2023-04-24T06:05:55;19.10;58.90
73322;DHT22;61549;37.044;22.128;2023-04-24T06:08:20;19.20;58.60
73322;DHT22;61549;37.044;22.128;2023-04-24T06:10:46;19.30;58.10
73322;DHT22;61549;37.044;22.128;2023-04-24T06:13:12;19.40;57.80
73322;DHT22;61549;37.044;22.128;2023-04-24T06:15:38;19.50;57.50
73322;DHT22;61549;37.044;22.128;2023-04-24T06:18:04;19.70;57.10
73322;DHT22;61549;37.044;22.128;2023-04-24T06:20:30;19.80;57.10
73322;DHT22;61549;37.044;22.128;2023-04-24T06:22:56;19.90;57.20
73322;DHT22;61549;37.044;22.128;2023-04-24T06:25:21;19.90;57.40
73322;DHT22;61549;37.044;22.128;2023-04-24T06:27:47;20.10;56.90
73322;DHT22;61549;37.044;22.128;2023-04-24T06:30:13;20.20;56.30
73322;DHT22;61549;37.044;22.128;2023-04-24T06:32:39;20.40;55.90
73322;DHT22;61549;37.044;22.128;2023-04-24T06:35:06;20.50;56.60
73322;DHT22;61549;37.044;22.128;2023-04-24T06:38:06;20.60;56.40
73322;DHT22;61549;37.044;22.128;2023-04-24T06:40:47;20.80;54.60
73322;DHT22;61549;37.044;22.128;2023-04-24T06:43:13;20.80;55.90
73322;DHT22;61549;37.044;22.128;2023-04-24T06:45:40;20.90;55.40
73322;DHT22;61549;37.044;22.128;2023-04-24T06:48:06;21.10;54.70
73322;DHT22;61549;37.044;22.128;2023-04-24T06:50:31;21.20;54.70
73322;DHT22;61549;37.044;22.128;2023-04-24T06:52:57;21.40;54.40
73322;DHT22;61549;37.044;22.128;2023-04-24T06:55:23;21.50;54.40
73322;DHT22;61549;37.044;22.128;2023-04-24T06:57:49;21.60;53.40
73322;DHT22;61549;37.044;22.128;2023-04-24T07:00:15;21.70;53.10
73322;DHT22;61549;37.044;22.128;2023-04-24T07:02:41;21.80;52.60
73322;DHT22;61549;37.044;22.128;2023-04-24T07:05:07;21.90;52.30
73322;DHT22;61549;37.044;22.128;2023-04-24T07:07:33;22.00;51.80
73322;DHT22;61549;37.044;22.128;2023-04-24T07:10:00;22.10;52.10
73322;DHT22;61549;37.044;22.128;2023-04-24T07:12:26;22.30;51.20
73322;DHT22;61549;37.044;22.128;2023-04-24T07:14:51;22.30;51.20
73322;DHT22;61549;37.044;22.128;2023-04-24T07:17:17;22.40;51.20
73322;DHT22;61549;37.044;22.128;2023-04-24T07:19:43;22.40;51.30
73322;DHT22;61549;37.044;22.128;2023-04-24T07:22:09;22.50;51.40
73322;DHT22;61549;37.044;22.128;2023-04-24T07:24:36;22.50;51.50
73322;DHT22;61549;37.044;22.128;2023-04-24T07:27:04;22.50;51.20
73322;DHT22;61549;37.044;22.128;2023-04-24T07:29:30;22.40;51.70
73322;DHT22;61549;37.044;22.128;2023-04-24T07:31:55;22.50;51.60
73322;DHT22;61549;37.044;22.128;2023-04-24T07:34:22;22.60;50.90
73322;DHT22;61549;37.044;22.128;2023-04-24T07:36:47;22.70;51.30
73322;DHT22;61549;37.044;22.128;2023-04-24T07:39:13;22.80;50.60
73322;DHT22;61549;37.044;22.128;2023-04-24T07:41:39;22.80;50.50
73322;DHT22;61549;37.044;22.128;2023-04-24T07:44:05;22.70;49.80
73322;DHT22;61549;37.044;22.128;2023-04-24T07:46:31;22.70;50.30
73322;DHT22;61549;37.044;22.128;2023-04-24T07:48:57;22.60;50.30
73322;DHT22;61549;37.044;22.128;2023-04-24T07:51:24;22.70;49.80
73322;DHT22;61549;37.044;22.128;2023-04-24T07:53:53;22.70;49.30
73322;DHT22;61549;37.044;22.128;2023-04-24T07:56:26;22.70;49.10
73322;DHT22;61549;37.044;22.128;2023-04-24T07:58:52;22.80;49.70
73322;DHT22;61549;37.044;22.128;2023-04-24T08:01:18;22.90;48.70
73322;DHT22;61549;37.044;22.128;2023-04-24T08:03:44;22.90;48.40
73322;DHT22;61549;37.044;22.128;2023-04-24T08:06:09;23.00;48.10
73322;DHT22;61549;37.044;22.128;2023-04-24T08:08:35;23.10;48.10
73322;DHT22;61549;37.044;22.128;2023-04-24T08:11:01;23.10;48.50
73322;DHT22;61549;37.044;22.128;2023-04-24T08:13:28;23.00;48.60
73322;DHT22;61549;37.044;22.128;2023-04-24T08:15:54;23.00;48.80
73322;DHT22;61549;37.044;22.128;2023-04-24T08:18:19;23.20;48.20
73322;DHT22;61549;37.044;22.128;2023-04-24T08:20:45;23.20;48.20
73322;DHT22;61549;37.044;22.128;2023-04-24T08:23:11;23.30;47.40
73322;DHT22;61549;37.044;22.128;2023-04-24T08:25:37;23.30;47.50
73322;DHT22;61549;37.044;22.128;2023-04-24T08:28:05;23.30;47.70
73322;DHT22;61549;37.044;22.128;2023-04-24T08:30:31;23.20;47.90
73322;DHT22;61549;37.044;22.128;2023-04-24T08:32:57;23.10;47.50
73322;DHT22;61549;37.044;22.128;2023-04-24T08:35:23;23.10;48.80
73322;DHT22;61549;37.044;22.128;2023-04-24T08:37:49;23.00;47.60
73322;DHT22;61549;37.044;22.128;2023-04-24T08:40:16;23.10;47.80
73322;DHT22;61549;37.044;22.128;2023-04-24T08:42:44;23.00;48.10
73322;DHT22;61549;37.044;22.128;2023-04-24T08:45:12;22.90;47.90
73322;DHT22;61549;37.044;22.128;2023-04-24T08:47:57;22.90;47.50
73322;DHT22;61549;37.044;22.128;2023-04-24T08:50:24;22.70;47.00
73322;DHT22;61549;37.044;22.128;2023-04-24T08:52:51;22.70;48.40
73322;DHT22;61549;37.044;22.128;2023-04-24T08:55:20;22.70;48.00
73322;DHT22;61549;37.044;22.128;2023-04-24T08:57:50;22.80;47.90
73322;DHT22;61549;37.044;22.128;2023-04-24T09:00:18;22.80;48.60
73322;DHT22;61549;37.044;22.128;2023-04-24T09:02:44;22.90;48.40
73322;DHT22;61549;37.044;22.128;2023-04-24T09:05:13;22.80;47.40
73322;DHT22;61549;37.044;22.128;2023-04-24T09:07:42;22.90;47.50
73322;DHT22;61549;37.044;22.128;2023-04-24T09:10:09;22.80;47.90
73322;DHT22;61549;37.044;22.128;2023-04-24T09:12:35;22.90;47.70
73322;DHT22;61549;37.044;22.128;2023-04-24T09:15:02;23.00;48.70
73322;DHT22;61549;37.044;22.128;2023-04-24T09:17:30;22.90;46.00
73322;DHT22;61549;37.044;22.128;2023-04-24T09:19:56;23.10;44.60
73322;DHT22;61549;37.044;22.128;2023-04-24T09:22:22;23.20;46.10
73322;DHT22;61549;37.044;22.128;2023-04-24T09:24:48;23.20;47.00
73322;DHT22;61549;37.044;22.128;2023-04-24T09:27:14;23.20;43.90
73322;DHT22;61549;37.044;22.128;2023-04-24T09:29:55;23.30;44.90
73322;DHT22;61549;37.044;22.128;2023-04-24T09:32:22;23.20;43.80
73322;DHT22;61549;37.044;22.128;2023-04-24T09:35:08;23.20;44.40
73322;DHT22;61549;37.044;22.128;2023-04-24T09:37:36;23.20;44.80
73322;DHT22;61549;37.044;22.128;2023-04-24T09:40:13;23.20;45.60
73322;DHT22;61549;37.044;22.128;2023-04-24T09:42:51;23.30;43.50
73322;DHT22;61549;37.044;22.128;2023-04-24T09:45:17;23.40;40.80
73322;DHT22;61549;37.044;22.128;2023-04-24T09:47:43;23.40;43.00
73322;DHT22;61549;37.044;22.128;2023-04-24T09:50:10;23.30;40.90
73322;DHT22;61549;37.044;22.128;2023-04-24T09:52:40;23.30;41.00
73322;DHT22;61549;37.044;22.128;2023-04-24T09:55:33;23.40;41.80
73322;DHT22;61549;37.044;22.128;2023-04-24T09:58:00;23.30;44.50
73322;DHT22;61549;37.044;22.128;2023-04-24T10:00:28;23.20;45.90
73322;DHT22;61549;37.044;22.128;2023-04-24T10:02:57;23.20;43.90
73322;DHT22;61549;37.044;22.128;2023-04-24T10:05:36;23.10;47.60
73322;DHT22;61549;37.044;22.128;2023-04-24T10:08:24;23.10;47.10
73322;DHT22;61549;37.044;22.128;2023-04-24T10:10:50;23.20;49.10
73322;DHT22;61549;37.044;22.128;2023-04-24T10:13:17;23.10;47.60
73322;DHT22;61549;37.044;22.128;2023-04-24T10:15:46;23.00;47.90
73322;DHT22;61549;37.044;22.128;2023-04-24T10:18:15;23.00;49.90
73322;DHT22;61549;37.044;22.128;2023-04-24T10:20:42;23.00;48.50
73322;DHT22;61549;37.044;22.128;2023-04-24T10:23:08;22.90;48.40
73322;DHT22;61549;37.044;22.128;2023-04-24T10:25:35;22.90;48.30
73322;DHT22;61549;37.044;22.128;2023-04-24T10:28:02;22.90;48.30
73322;DHT22;61549;37.044;22.128;2023-04-24T10:30:30;22.90;49.00
73322;DHT22;61549;37.044;22.128;2023-04-24T10:33:04;22.90;49.90
73322;DHT22;61549;37.044;22.128;2023-04-24T10:35:42;23.00;48.10
73322;DHT22;61549;37.044;22.128;2023-04-24T10:38:13;23.00;48.10
73322;DHT22;61549;37.044;22.128;2023-04-24T10:46:47;23.20;48.80
73322;DHT22;61549;37.044;22.128;2023-04-24T10:49:31;23.10;49.00
73322;DHT22;61549;37.044;22.128;2023-04-24T10:52:02;23.20;47.20
73322;DHT22;61549;37.044;22.128;2023-04-24T10:54:34;23.10;48.80
73322;DHT22;61549;37.044;22.128;2023-04-24T11:02:47;23.50;47.20
73322;DHT22;61549;37.044;22.128;2023-04-24T11:05:19;23.40;46.70
73322;DHT22;61549;37.044;22.128;2023-04-24T11:10:47;23.50;47.50
73322;DHT22;61549;37.044;22.128;2023-04-24T11:13:21;23.40;47.60
73322;DHT22;61549;37.044;22.128;2023-04-24T11:18:41;23.60;48.80
73322;DHT22;61549;37.044;22.128;2023-04-24T11:21:15;23.70;47.90
73322;DHT22;61549;37.044;22.128;2023-04-24T11:23:41;23.70;47.30
73322;DHT22;61549;37.044;22.128;2023-04-24T11:26:12;23.50;47.20
73322;DHT22;61549;37.044;22.128;2023-04-24T11:28:45;23.50;47.00
73322;DHT22;61549;37.044;22.128;2023-04-24T11:31:37;23.50;47.20
73322;DHT22;61549;37.044;22.128;2023-04-24T11:34:11;23.50;46.90
73322;DHT22;61549;37.044;22.128;2023-04-24T11:36:38;23.50;48.10
73322;DHT22;61549;37.044;22.128;2023-04-24T11:39:04;23.60;47.60
73322;DHT22;61549;37.044;22.128;2023-04-24T11:41:30;23.60;47.60
73322;DHT22;61549;37.044;22.128;2023-04-24T11:44:00;23.60;47.30
73322;DHT22;61549;37.044;22.128;2023-04-24T11:46:30;23.60;47.40
73322;DHT22;61549;37.044;22.128;2023-04-24T11:48:57;23.70;48.70
73322;DHT22;61549;37.044;22.128;2023-04-24T11:51:26;23.80;47.40
73322;DHT22;61549;37.044;22.128;2023-04-24T11:53:56;23.80;47.50
73322;DHT22;61549;37.044;22.128;2023-04-24T11:56:24;23.80;46.20
73322;DHT22;61549;37.044;22.128;2023-04-24T11:58:53;23.80;46.20
73322;DHT22;61549;37.044;22.128;2023-04-24T12:01:22;23.80;46.00
73322;DHT22;61549;37.044;22.128;2023-04-24T12:03:59;23.90;46.90
73322;DHT22;61549;37.044;22.128;2023-04-24T12:06:25;23.90;46.30
73322;DHT22;61549;37.044;22.128;2023-04-24T12:08:52;23.90;46.80
73322;DHT22;61549;37.044;22.128;2023-04-24T12:11:20;24.00;47.10
73322;DHT22;61549;37.044;22.128;2023-04-24T12:13:46;24.00;46.60
73322;DHT22;61549;37.044;22.128;2023-04-24T12:16:12;24.10;46.80
73322;DHT22;61549;37.044;22.128;2023-04-24T12:18:42;24.00;44.80
73322;DHT22;61549;37.044;22.128;2023-04-24T12:23:43;23.80;47.40
73322;DHT22;61549;37.044;22.128;2023-04-24T12:26:10;23.80;47.00
73322;DHT22;61549;37.044;22.128;2023-04-24T12:28:37;23.80;46.30
73322;DHT22;61549;37.044;22.128;2023-04-24T12:31:03;23.90;46.40
73322;DHT22;61549;37.044;22.128;2023-04-24T12:33:33;24.20;45.30
73322;DHT22;61549;37.044;22.128;2023-04-24T12:36:00;24.20;45.50
73322;DHT22;61549;37.044;22.128;2023-04-24T12:38:27;24.40;45.30
73322;DHT22;61549;37.044;22.128;2023-04-24T12:41:08;24.40;44.20
73322;DHT22;61549;37.044;22.128;2023-04-24T12:43:34;24.40;44.90
73322;DHT22;61549;37.044;22.128;2023-04-24T12:46:01;24.40;43.70
73322;DHT22;61549;37.044;22.128;2023-04-24T12:48:27;24.30;43.90
73322;DHT22;61549;37.044;22.128;2023-04-24T12:50:53;24.20;43.40
73322;DHT22;61549;37.044;22.128;2023-04-24T12:53:20;24.40;44.60
73322;DHT22;61549;37.044;22.128;2023-04-24T12:55:46;24.40;44.50
73322;DHT22;61549;37.044;22.128;2023-04-24T12:58:19;24.60;44.40
73322;DHT22;61549;37.044;22.128;2023-04-24T13:00:45;24.70;43.20
73322;DHT22;61549;37.044;22.128;2023-04-24T13:03:12;24.90;41.50
73322;DHT22;61549;37.044;22.128;2023-04-24T13:05:39;24.80;42.00
73322;DHT22;61549;37.044;22.128;2023-04-24T13:08:05;24.60;41.80
73322;DHT22;61549;37.044;22.128;2023-04-24T13:10:31;24.50;42.60
73322;DHT22;61549;37.044;22.128;2023-04-24T13:12:57;24.60;43.10
73322;DHT22;61549;37.044;22.128;2023-04-24T13:15:23;24.60;42.20
73322;DHT22;61549;37.044;22.128;2023-04-24T13:17:51;24.80;41.80
73322;DHT22;61549;37.044;22.128;2023-04-24T13:20:18;24.80;41.90
73322;DHT22;61549;37.044;22.128;2023-04-24T13:22:45;24.70;41.60
73322;DHT22;61549;37.044;22.128;2023-04-24T13:25:10;24.60;41.70
73322;DHT22;61549;37.044;22.128;2023-04-24T13:27:38;24.70;41.80
73322;DHT22;61549;37.044;22.128;2023-04-24T13:30:05;24.90;42.20
73322;DHT22;61549;37.044;22.128;2023-04-24T13:32:32;24.80;41.00
73322;DHT22;61549;37.044;22.128;2023-04-24T13:34:59;24.90;41.00
73322;DHT22;61549;37.044;22.128;2023-04-24T13:37:25;25.00;40.50
73322;DHT22;61549;37.044;22.128;2023-04-24T13:39:51;25.00;40.40
73322;DHT22;61549;37.044;22.128;2023-04-24T13:42:17;25.20;39.90
73322;DHT22;61549;37.044;22.128;2023-04-24T13:44:44;25.40;39.80
73322;DHT22;61549;37.044;22.128;2023-04-24T13:47:10;25.40;39.70
73322;DHT22;61549;37.044;22.128;2023-04-24T13:49:36;25.30;40.00
73322;DHT22;61549;37.044;22.128;2023-04-24T13:52:02;25.30;39.80
73322;DHT22;61549;37.044;22.128;2023-04-24T13:54:28;25.40;39.60
73322;DHT22;61549;37.044;22.128;2023-04-24T13:56:57;25.50;39.80
73322;DHT22;61549;37.044;22.128;2023-04-24T13:59:24;25.50;39.40
73322;DHT22;61549;37.044;22.128;2023-04-24T14:01:51;25.50;39.70
73322;DHT22;61549;37.044;22.128;2023-04-24T14:04:23;25.50;39.40
73322;DHT22;61549;37.044;22.128;2023-04-24T14:06:49;25.40;39.30
73322;DHT22;61549;37.044;22.128;2023-04-24T14:09:15;25.30;39.60
73322;DHT22;61549;37.044;22.128;2023-04-24T14:11:41;25.20;38.90
73322;DHT22;61549;37.044;22.128;2023-04-24T14:14:07;25.20;39.50
73322;DHT22;61549;37.044;22.128;2023-04-24T14:16:34;25.20;39.10
73322;DHT22;61549;37.044;22.128;2023-04-24T14:19:04;25.30;38.80
73322;DHT22;61549;37.044;22.128;2023-04-24T14:21:31;25.30;38.70
73322;DHT22;61549;37.044;22.128;2023-04-24T14:23:56;25.20;39.00
73322;DHT22;61549;37.044;22.128;2023-04-24T14:26:22;25.10;39.00
73322;DHT22;61549;37.044;22.128;2023-04-24T14:28:50;25.20;39.50
73322;DHT22;61549;37.044;22.128;2023-04-24T14:31:16;25.30;39.40
73322;DHT22;61549;37.044;22.128;2023-04-24T14:33:42;25.30;39.10
73322;DHT22;61549;37.044;22.128;2023-04-24T14:36:07;25.40;39.40
73322;DHT22;61549;37.044;22.128;2023-04-24T14:38:34;25.40;39.30
73322;DHT22;61549;37.044;22.128;2023-04-24T14:41:00;25.20;39.30
73322;DHT22;61549;37.044;22.128;2023-04-24T14:43:26;25.20;39.50
73322;DHT22;61549;37.044;22.128;2023-04-24T14:45:52;25.30;40.10
73322;DHT22;61549;37.044;22.128;2023-04-24T14:48:18;25.30;40.20
73322;DHT22;61549;37.044;22.128;2023-04-24T14:50:44;25.30;39.90
73322;DHT22;61549;37.044;22.128;2023-04-24T14:53:10;25.20;40.20
73322;DHT22;61549;37.044;22.128;2023-04-24T14:55:36;25.40;39.80
73322;DHT22;61549;37.044;22.128;2023-04-24T14:58:02;25.40;39.60
73322;DHT22;61549;37.044;22.128;2023-04-24T15:00:28;25.10;40.00
73322;DHT22;61549;37.044;22.128;2023-04-24T15:02:54;25.20;40.00
73322;DHT22;61549;37.044;22.128;2023-04-24T15:05:20;25.20;40.10
73322;DHT22;61549;37.044;22.128;2023-04-24T15:07:49;25.10;40.10
73322;DHT22;61549;37.044;22.128;2023-04-24T15:10:15;25.00;40.30
73322;DHT22;61549;37.044;22.128;2023-04-24T15:12:43;25.00;40.00
73322;DHT22;61549;37.044;22.128;2023-04-24T15:15:09;24.90;39.90
73322;DHT22;61549;37.044;22.128;2023-04-24T15:17:35;25.00;39.80
73322;DHT22;61549;37.044;22.128;2023-04-24T15:20:03;24.90;40.00
73322;DHT22;61549;37.044;22.128;2023-04-24T15:22:32;25.00;40.20
73322;DHT22;61549;37.044;22.128;2023-04-24T15:24:57;25.10;40.30
73322;DHT22;61549;37.044;22.128;2023-04-24T15:27:23;25.20;40.30
73322;DHT22;61549;37.044;22.128;2023-04-24T15:29:49;25.10;40.10
73322;DHT22;61549;37.044;22.128;2023-04-24T15:32:15;25.00;40.00
73322;DHT22;61549;37.044;22.128;2023-04-24T15:34:41;24.90;40.00
73322;DHT22;61549;37.044;22.128;2023-04-24T15:37:07;24.90;40.20
73322;DHT22;61549;37.044;22.128;2023-04-24T15:39:33;24.90;40.20